Airfield :







YOU CAN JOIN US ON...

 
LOGIN :

Register | Disclaimer

   EN    FR    IT 

 









Legend :    VFR   Marginal VFR   IFR   Intensive IFR   Very Intensive IFR
Visi :
Ceiling :
>= 8 km
>= 3000ft
5 to 8 km
1000 to 3000 ft
1500m to 5 km
500 to 1000 ft
800 to 1500m
200 to 500 ft
< 800m
< 200 ft
Symbols :   Thunderstorms  Fog  Heavy snow  Heavy precipitations  Wind > 20 kt






- Airport Elevation : 180 ft
- IATA code : YZV


CYZV - Sept-Iles

CURRENT METAR :
  • 141700Z 13006KT 080V140 5SM VCFG FEW002 BKN020 BKN260 11/07 A3004 RMK ST1SC5CI1 VIS N 30 FG OVR WTR SE-W SLP176

EXPIRED METARs :
  • 141600Z 16010KT 3SM VCFG FEW002 SCT020 BKN260 10/06 A3005 RMK ST1SC2CI2 VIS N 30 S-SW 1/2 FG OVR WTR SLP181
  • 141555Z 15010KT 3SM VCFG FEW002 SCT020 BKN260 10/07 A3005 RMK ST1SC2CI2 WSHFT 1543 VIS N 30 S 1/2 FG OVR WTR SLP181
  • 141500Z 10005KT 30SM VCFG FEW002 BKN020 BKN260 10/06 A3006 RMK ST1SC7CI1 ST TR CI TR VIS S 5 FG OVR WTR S SLP183

TAF AMD TAF CYZV
Valid from the 14 at 14:00 until the 15 at 12:00 UTC


141408Z 1414/1512 13005KT P6SM FEW015
TEMPO 1414/1423 3SM BR FEW002 BKN015
BECMG 1414/1416 10010KT
FM142300 09015KT P6SM -DZ BKN007 OVC012
FM150600 09012KT 3/4SM -RA BR OVC003
FM151000 21012KT 6SM -RA BR BKN003 OVC008 RMK NXT FCST BY 141800Z



MET'MAP, your aeronautical weather chart ! - Copyright ORBIFLY December 2007 - Disclaimer

ORBIFLY MET'MAP TEAM :

Programming & Development : Alexandra Zaïnal
Concept & Development : Baudouin d'Aumeries
Co-Development & Prog : Marc-Olivier Méhu
Technical & hardware support : Manuel Goepfert

Contact : metmap@orbifly.com




SOURCES & CREDITS :

   NOAA